To NAV CANADA Home Page Login to a new session Search on AWWS site Feedback and Comments Disclaimer Vers la page française équivalente Tips FAQ What's new on the site To the Forecasts and Observations / NOTAM section To "File a Flight Plan" website Publications and other links Update of the User's profile FIC Telephone Numbers My Weather Data Folder Route Weather Data Regional Weather Data Local Weather Data To the Forecasts and Observations / NOTAM section
Request Generated 07/05/2015 at 23:14:41 UTC . Weather information available at that time is displayed.

METAR/TAF

KUUJJUAQ/QC    

METAR CYVP 052300Z 06008KT 15SM FEW015 BKN210 13/08 A3006 RMK SC1CI6
SC TR SLP183=
METAR CYVP 052200Z 08009KT 15SM FEW016 BKN220 14/08 A3006 RMK SC1CI6
SC TR SLP182=
METAR CYVP 052100Z 07007KT 15SM FEW018 BKN220 15/08 A3006 RMK SC1CI6
SC TR SLP180=

TAF CYVP 051738Z 0518/0606 12006KT P6SM BKN020 TEMPO 0518/0520 SCT020
FM052000 09006KT P6SM SCT020
BECMG 0602/0604 VRB03KT
RMK NXT FCST BY 060000Z=
Your time UTC time
Weather data provided by Environment Canada and NAV CANADA